Wetterdaten: Woche 17.07.17 - 23.07.17 (KW29)
Datum Zeit Temperatur Luftfeuchte Luftdruck Niederschlag Windrichtung Sonnenschein Solar Wind
17.07.2017 00:00 14,2 C 87 % 1020,6 hPa 0,0 l/m N 0,00 h 0 W/m 0,0 km/h (0 Bft)
17.07.2017 01:00 13,5 C 89 % 1020,4 hPa 0,0 l/m N 0,00 h 0 W/m 0,1 km/h (0 Bft)
17.07.2017 02:00 13,0 C 91 % 1020,1 hPa 0,0 l/m N 0,00 h 0 W/m 0,0 km/h (0 Bft)
17.07.2017 03:00 12,4 C 92 % 1019,7 hPa 0,0 l/m N 0,00 h 0 W/m 0,0 km/h (0 Bft)
17.07.2017 04:00 12,0 C 94 % 1019,3 hPa 0,0 l/m N 0,00 h 0 W/m 0,0 km/h (0 Bft)
17.07.2017 05:00 11,7 C 94 % 1019,3 hPa 0,0 l/m N 0,00 h 7 W/m 0,0 km/h (0 Bft)
17.07.2017 06:00 11,6 C 95 % 1019,4 hPa 0,0 l/m N 0,58 h 70 W/m 0,0 km/h (0 Bft)
17.07.2017 07:00 13,8 C 91 % 1019,4 hPa 0,0 l/m N 0,83 h 226 W/m 0,0 km/h (0 Bft)
17.07.2017 08:00 17,5 C 77 % 1019,5 hPa 0,0 l/m S-SW 1,00 h 408 W/m 0,8 km/h (0 Bft)
17.07.2017 09:00 20,4 C 64 % 1019,3 hPa 0,0 l/m S-SW 0,83 h 446 W/m 4,1 km/h (1 Bft)
17.07.2017 10:00 22,1 C 57 % 1019,1 hPa 0,0 l/m S-SW 0,92 h 618 W/m 5,5 km/h (1 Bft)
17.07.2017 11:00 23,6 C 53 % 1018,8 hPa 0,0 l/m O-NO 1,00 h 790 W/m 10,1 km/h (2 Bft)
17.07.2017 12:00 24,5 C 53 % 1018,7 hPa 0,0 l/m O-NO 1,00 h 850 W/m 9,9 km/h (2 Bft)
17.07.2017 13:00 25,6 C 50 % 1018,4 hPa 0,0 l/m O 1,00 h 871 W/m 11,0 km/h (2 Bft)
17.07.2017 14:00 25,6 C 51 % 1018,1 hPa 0,0 l/m N-NO 0,58 h 555 W/m 9,9 km/h (2 Bft)
17.07.2017 15:00 26,7 C 47 % 1017,5 hPa 0,0 l/m NO 0,83 h 686 W/m 10,5 km/h (2 Bft)
17.07.2017 16:00 26,8 C 48 % 1017,3 hPa 0,0 l/m O-NO 0,83 h 566 W/m 8,0 km/h (2 Bft)
17.07.2017 17:00 26,8 C 47 % 1016,9 hPa 0,0 l/m O-NO 0,42 h 303 W/m 8,8 km/h (2 Bft)
17.07.2017 18:00 26,7 C 46 % 1016,5 hPa 0,0 l/m O-SO 1,00 h 344 W/m 10,6 km/h (2 Bft)
17.07.2017 19:00 26,2 C 48 % 1016,3 hPa 0,0 l/m O-SO 0,75 h 165 W/m 9,7 km/h (2 Bft)
17.07.2017 20:00 24,4 C 55 % 1016,4 hPa 0,0 l/m O 0,00 h 34 W/m 7,8 km/h (2 Bft)
17.07.2017 21:00 21,6 C 68 % 1016,7 hPa 0,0 l/m N 0,00 h 6 W/m 1,7 km/h (1 Bft)
17.07.2017 22:00 18,8 C 79 % 1016,9 hPa 0,0 l/m N 0,00 h 0 W/m 0,0 km/h (0 Bft)
17.07.2017 23:00 17,8 C 82 % 1016,9 hPa 0,0 l/m N 0,00 h 0 W/m 0,1 km/h (0 Bft)
18.07.2017 00:00 17,2 C 84 % 1016,7 hPa 0,0 l/m N 0,00 h 0 W/m 0,7 km/h (0 Bft)
18.07.2017 01:00 16,7 C 85 % 1016,6 hPa 0,0 l/m N 0,00 h 0 W/m 0,3 km/h (0 Bft)
18.07.2017 02:00 16,2 C 87 % 1016,4 hPa 0,0 l/m N 0,00 h 0 W/m 0,9 km/h (0 Bft)
18.07.2017 03:00 15,9 C 88 % 1016,1 hPa 0,0 l/m O 0,00 h 0 W/m 7,2 km/h (2 Bft)
18.07.2017 04:00 15,4 C 89 % 1015,8 hPa 0,0 l/m O 0,00 h 0 W/m 6,0 km/h (2 Bft)
18.07.2017 05:00 14,7 C 92 % 1015,7 hPa 0,0 l/m O 0,08 h 8 W/m 0,8 km/h (0 Bft)
18.07.2017 06:00 14,9 C 93 % 1015,9 hPa 0,0 l/m O 1,00 h 78 W/m 3,2 km/h (1 Bft)
18.07.2017 07:00 16,9 C 88 % 1015,8 hPa 0,0 l/m O 0,58 h 194 W/m 4,0 km/h (1 Bft)
18.07.2017 08:00 19,0 C 82 % 1015,6 hPa 0,0 l/m O-NO 0,92 h 378 W/m 5,7 km/h (1 Bft)
18.07.2017 09:00 21,7 C 72 % 1015,3 hPa 0,0 l/m O-NO 0,83 h 460 W/m 7,5 km/h (2 Bft)
18.07.2017 10:00 24,4 C 63 % 1015,0 hPa 0,0 l/m O 0,92 h 610 W/m 11,5 km/h (2 Bft)
18.07.2017 11:00 26,1 C 55 % 1014,8 hPa 0,0 l/m O-NO 1,00 h 785 W/m 14,5 km/h (3 Bft)
18.07.2017 12:00 27,4 C 48 % 1014,4 hPa 0,0 l/m O 1,00 h 845 W/m 15,0 km/h (3 Bft)
18.07.2017 13:00 28,3 C 46 % 1013,9 hPa 0,0 l/m O-NO 1,00 h 829 W/m 14,2 km/h (3 Bft)
18.07.2017 14:00 28,9 C 44 % 1013,4 hPa 0,0 l/m O-NO 1,00 h 756 W/m 14,0 km/h (3 Bft)
18.07.2017 15:00 29,3 C 43 % 1012,8 hPa 0,0 l/m O-NO 1,00 h 672 W/m 13,6 km/h (3 Bft)
18.07.2017 16:00 29,4 C 42 % 1012,2 hPa 0,0 l/m O-NO 0,92 h 557 W/m 11,3 km/h (2 Bft)
18.07.2017 17:00 29,3 C 41 % 1011,8 hPa 0,0 l/m O-NO 1,00 h 391 W/m 10,1 km/h (2 Bft)
18.07.2017 18:00 28,3 C 46 % 1011,3 hPa 0,0 l/m NO 0,42 h 213 W/m 13,0 km/h (3 Bft)
18.07.2017 19:00 27,1 C 50 % 1011,3 hPa 0,0 l/m O-NO 0,25 h 131 W/m 10,2 km/h (2 Bft)
18.07.2017 20:00 26,1 C 52 % 1011,3 hPa 0,0 l/m O 0,25 h 42 W/m 7,0 km/h (2 Bft)
18.07.2017 21:00 23,5 C 56 % 1012,5 hPa 0,0 l/m W-NW 0,00 h 0 W/m 20,5 km/h (4 Bft)
18.07.2017 22:00 17,2 C 87 % 1013,3 hPa 15,0 l/m W 0,00 h 0 W/m 13,4 km/h (3 Bft)
18.07.2017 23:00 16,4 C 93 % 1012,5 hPa 0,0 l/m SW 0,00 h 0 W/m 8,9 km/h (2 Bft)
19.07.2017 00:00 16,0 C 94 % 1012,6 hPa 0,0 l/m SW 0,00 h 0 W/m 5,2 km/h (1 Bft)
19.07.2017 01:00 15,4 C 94 % 1011,9 hPa 0,0 l/m SW 0,00 h 0 W/m 7,5 km/h (2 Bft)
19.07.2017 02:00 15,3 C 94 % 1011,4 hPa 0,0 l/m N 0,00 h 0 W/m 0,8 km/h (0 Bft)
19.07.2017 03:00 15,2 C 94 % 1011,4 hPa 0,2 l/m N 0,00 h 0 W/m 1,2 km/h (1 Bft)
19.07.2017 04:00 14,5 C 96 % 1011,3 hPa 0,0 l/m N 0,00 h 0 W/m 0,0 km/h (0 Bft)
19.07.2017 05:00 14,1 C 97 % 1011,7 hPa 0,0 l/m N 0,08 h 9 W/m 0,0 km/h (0 Bft)
19.07.2017 06:00 14,1 C 98 % 1011,8 hPa 0,0 l/m N 0,33 h 60 W/m 0,0 km/h (0 Bft)
19.07.2017 07:00 15,7 C 97 % 1012,0 hPa 0,0 l/m N 0,58 h 173 W/m 0,0 km/h (0 Bft)
19.07.2017 08:00 18,0 C 93 % 1012,3 hPa 0,0 l/m S-SW 0,83 h 351 W/m 2,5 km/h (1 Bft)
19.07.2017 09:00 21,0 C 85 % 1012,1 hPa 0,0 l/m S-SW 0,83 h 434 W/m 8,6 km/h (2 Bft)
19.07.2017 10:00 23,5 C 78 % 1011,8 hPa 0,0 l/m S-SW 0,92 h 586 W/m 9,7 km/h (2 Bft)
19.07.2017 11:00 25,7 C 71 % 1011,4 hPa 0,0 l/m S-SW 1,00 h 761 W/m 11,4 km/h (2 Bft)
19.07.2017 12:00 27,4 C 63 % 1011,0 hPa 0,0 l/m S-SW 1,00 h 818 W/m 15,7 km/h (3 Bft)
19.07.2017 13:00 28,7 C 54 % 1010,4 hPa 0,0 l/m S-SW 1,00 h 839 W/m 15,3 km/h (3 Bft)
19.07.2017 14:00 29,7 C 48 % 1009,8 hPa 0,0 l/m S 1,00 h 813 W/m 10,9 km/h (2 Bft)
19.07.2017 15:00 30,2 C 46 % 1009,3 hPa 0,0 l/m SW 1,00 h 692 W/m 9,9 km/h (2 Bft)
19.07.2017 16:00 30,1 C 45 % 1008,6 hPa 0,0 l/m W 0,83 h 513 W/m 7,8 km/h (2 Bft)
19.07.2017 17:00 30,4 C 44 % 1008,0 hPa 0,0 l/m W 1,00 h 469 W/m 5,1 km/h (1 Bft)
19.07.2017 18:00 30,2 C 47 % 1007,7 hPa 0,0 l/m W 1,00 h 314 W/m 4,1 km/h (1 Bft)
19.07.2017 19:00 28,2 C 57 % 1007,9 hPa 0,0 l/m W 0,50 h 141 W/m 4,9 km/h (1 Bft)
19.07.2017 20:00 25,8 C 54 % 1008,9 hPa 0,0 l/m W-SW 0,00 h 19 W/m 26,2 km/h (4 Bft)
19.07.2017 21:00 23,6 C 55 % 1010,3 hPa 0,0 l/m W-SW 0,00 h 0 W/m 18,4 km/h (3 Bft)
19.07.2017 22:00 20,7 C 75 % 1010,6 hPa 0,2 l/m W-SW 0,00 h 0 W/m 3,3 km/h (1 Bft)
19.07.2017 23:00 19,0 C 87 % 1010,4 hPa 0,0 l/m W-SW 0,00 h 0 W/m 2,8 km/h (1 Bft)
20.07.2017 00:00 18,5 C 90 % 1009,9 hPa 0,0 l/m W-SW 0,00 h 0 W/m 1,2 km/h (1 Bft)
20.07.2017 01:00 18,1 C 91 % 1009,7 hPa 0,0 l/m N 0,00 h 0 W/m 0,4 km/h (0 Bft)
20.07.2017 02:00 17,6 C 89 % 1009,4 hPa 0,0 l/m N 0,00 h 0 W/m 0,0 km/h (0 Bft)
20.07.2017 03:00 17,2 C 91 % 1009,6 hPa 0,0 l/m N 0,00 h 0 W/m 0,1 km/h (0 Bft)
20.07.2017 04:00 17,4 C 90 % 1010,0 hPa 0,0 l/m S-SW 0,00 h 0 W/m 4,3 km/h (1 Bft)
20.07.2017 05:00 17,9 C 88 % 1009,9 hPa 0,0 l/m S-SW 0,00 h 6 W/m 10,7 km/h (2 Bft)
20.07.2017 06:00 18,1 C 88 % 1009,8 hPa 0,0 l/m SW 0,58 h 71 W/m 14,0 km/h (3 Bft)
20.07.2017 07:00 19,2 C 87 % 1009,8 hPa 0,0 l/m SW 0,42 h 157 W/m 8,3 km/h (2 Bft)
20.07.2017 08:00 20,3 C 80 % 1010,0 hPa 0,0 l/m SW 0,67 h 251 W/m 11,6 km/h (2 Bft)
20.07.2017 09:00 21,5 C 74 % 1009,7 hPa 0,0 l/m SW 0,83 h 393 W/m 14,6 km/h (3 Bft)
20.07.2017 10:00 22,7 C 67 % 1009,7 hPa 0,0 l/m W-SW 0,92 h 498 W/m 19,2 km/h (3 Bft)
20.07.2017 11:00 21,9 C 67 % 1010,1 hPa 0,0 l/m W 0,00 h 200 W/m 17,7 km/h (3 Bft)
20.07.2017 12:00 20,0 C 79 % 1010,7 hPa 0,4 l/m W-SW 0,00 h 89 W/m 13,4 km/h (3 Bft)
20.07.2017 13:00 17,8 C 91 % 1011,3 hPa 1,4 l/m W-SW 0,00 h 43 W/m 8,3 km/h (2 Bft)
20.07.2017 14:00 17,0 C 94 % 1011,4 hPa 3,2 l/m SW 0,00 h 152 W/m 9,4 km/h (2 Bft)
20.07.2017 15:00 18,0 C 93 % 1011,6 hPa 0,0 l/m SW 0,50 h 534 W/m 18,4 km/h (3 Bft)
20.07.2017 16:00 20,0 C 84 % 1011,3 hPa 0,0 l/m S-SW 1,00 h 676 W/m 16,6 km/h (3 Bft)
20.07.2017 17:00 21,3 C 78 % 1011,0 hPa 0,0 l/m SW 0,92 h 483 W/m 12,4 km/h (3 Bft)
20.07.2017 18:00 21,2 C 76 % 1010,8 hPa 0,0 l/m S-SW 0,92 h 321 W/m 11,8 km/h (2 Bft)
20.07.2017 19:00 21,1 C 74 % 1010,6 hPa 0,0 l/m SW 0,92 h 182 W/m 10,6 km/h (2 Bft)
20.07.2017 20:00 19,8 C 81 % 1011,1 hPa 0,0 l/m N 0,17 h 40 W/m 1,5 km/h (1 Bft)
20.07.2017 21:00 18,2 C 88 % 1011,7 hPa 0,0 l/m SW 0,08 h 10 W/m 2,0 km/h (1 Bft)
20.07.2017 22:00 18,1 C 90 % 1012,2 hPa 0,4 l/m SW 0,00 h 0 W/m 3,5 km/h (1 Bft)
20.07.2017 23:00 17,3 C 94 % 1012,3 hPa 1,8 l/m W-SW 0,00 h 0 W/m 3,2 km/h (1 Bft)
21.07.2017 00:00 16,9 C 96 % 1012,3 hPa 0,0 l/m N 0,00 h 0 W/m 0,0 km/h (0 Bft)
21.07.2017 01:00 16,4 C 97 % 1012,1 hPa 0,2 l/m W-SW 0,00 h 0 W/m 1,2 km/h (1 Bft)
21.07.2017 02:00 15,9 C 98 % 1012,2 hPa 0,0 l/m N 0,00 h 0 W/m 0,0 km/h (0 Bft)
21.07.2017 03:00 16,0 C 98 % 1012,1 hPa 0,0 l/m N 0,00 h 0 W/m 0,0 km/h (0 Bft)
21.07.2017 04:00 15,4 C 98 % 1011,7 hPa 0,0 l/m N 0,00 h 0 W/m 0,0 km/h (0 Bft)
21.07.2017 05:00 14,8 C 98 % 1011,8 hPa 0,0 l/m N 0,00 h 9 W/m 0,0 km/h (0 Bft)
21.07.2017 06:00 14,7 C 99 % 1011,9 hPa 0,0 l/m N 0,17 h 50 W/m 0,8 km/h (0 Bft)
21.07.2017 07:00 15,5 C 99 % 1011,9 hPa 0,0 l/m W-SW 0,92 h 189 W/m 3,7 km/h (1 Bft)
21.07.2017 08:00 17,5 C 97 % 1011,8 hPa 0,0 l/m NW 1,00 h 361 W/m 6,6 km/h (2 Bft)
21.07.2017 09:00 19,5 C 90 % 1011,7 hPa 0,0 l/m N-NW 0,83 h 442 W/m 9,4 km/h (2 Bft)
21.07.2017 10:00 21,8 C 78 % 1011,4 hPa 0,0 l/m NO 1,00 h 641 W/m 12,0 km/h (2 Bft)
21.07.2017 11:00 23,5 C 71 % 1011,0 hPa 0,0 l/m O-NO 1,00 h 799 W/m 13,2 km/h (3 Bft)
21.07.2017 12:00 25,1 C 61 % 1010,4 hPa 0,0 l/m O-NO 0,92 h 769 W/m 14,4 km/h (3 Bft)
21.07.2017 13:00 26,7 C 54 % 1009,7 hPa 0,0 l/m O-NO 1,00 h 851 W/m 15,2 km/h (3 Bft)
21.07.2017 14:00 27,4 C 50 % 1009,3 hPa 0,0 l/m O 1,00 h 730 W/m 14,4 km/h (3 Bft)
21.07.2017 15:00 28,2 C 48 % 1008,8 hPa 0,0 l/m O 0,92 h 722 W/m 13,0 km/h (3 Bft)
21.07.2017 16:00 28,6 C 46 % 1007,9 hPa 0,0 l/m O-NO 1,00 h 581 W/m 16,5 km/h (3 Bft)
21.07.2017 17:00 28,8 C 44 % 1007,0 hPa 0,0 l/m O 0,92 h 475 W/m 16,1 km/h (3 Bft)
21.07.2017 18:00 27,8 C 46 % 1006,8 hPa 0,0 l/m O 0,25 h 190 W/m 14,1 km/h (3 Bft)
21.07.2017 19:00 26,4 C 52 % 1006,5 hPa 0,0 l/m O 0,00 h 83 W/m 7,5 km/h (2 Bft)
21.07.2017 20:00 25,0 C 59 % 1006,1 hPa 0,0 l/m O 0,00 h 26 W/m 5,6 km/h (1 Bft)
21.07.2017 21:00 23,4 C 66 % 1006,4 hPa 0,0 l/m W 0,00 h 0 W/m 11,1 km/h (2 Bft)
21.07.2017 22:00 18,3 C 85 % 1008,5 hPa 0,8 l/m W-NW 0,00 h 0 W/m 34,6 km/h (5 Bft)
21.07.2017 23:00 17,0 C 90 % 1009,3 hPa 1,6 l/m W 0,00 h 0 W/m 12,9 km/h (3 Bft)
22.07.2017 00:00 16,3 C 94 % 1010,1 hPa 3,0 l/m W 0,00 h 0 W/m 7,2 km/h (2 Bft)
22.07.2017 01:00 16,4 C 96 % 1010,5 hPa 0,8 l/m S-SW 0,00 h 0 W/m 9,6 km/h (2 Bft)
22.07.2017 02:00 16,4 C 97 % 1010,3 hPa 0,0 l/m SW 0,00 h 0 W/m 9,3 km/h (2 Bft)
22.07.2017 03:00 16,1 C 98 % 1010,0 hPa 0,0 l/m SW 0,00 h 0 W/m 12,8 km/h (3 Bft)
22.07.2017 04:00 16,1 C 98 % 1010,1 hPa 0,2 l/m SW 0,00 h 0 W/m 3,6 km/h (1 Bft)
22.07.2017 05:00 16,2 C 98 % 1010,1 hPa 0,0 l/m N 0,00 h 0 W/m 0,0 km/h (0 Bft)
22.07.2017 06:00 16,3 C 98 % 1010,5 hPa 0,0 l/m SW 0,00 h 19 W/m 5,6 km/h (1 Bft)
22.07.2017 07:00 16,8 C 98 % 1010,9 hPa 0,0 l/m SW 0,42 h 136 W/m 2,4 km/h (1 Bft)
22.07.2017 08:00 18,1 C 94 % 1011,2 hPa 0,0 l/m SW 0,83 h 367 W/m 9,0 km/h (2 Bft)
22.07.2017 09:00 19,9 C 86 % 1011,5 hPa 0,0 l/m SW 0,83 h 457 W/m 13,7 km/h (3 Bft)
22.07.2017 10:00 21,4 C 79 % 1011,7 hPa 0,0 l/m SW 0,92 h 623 W/m 16,2 km/h (3 Bft)
22.07.2017 11:00 22,6 C 71 % 1011,8 hPa 0,0 l/m W-SW 0,92 h 772 W/m 15,2 km/h (3 Bft)
22.07.2017 12:00 23,6 C 67 % 1011,7 hPa 0,0 l/m W 0,75 h 702 W/m 11,5 km/h (2 Bft)
22.07.2017 13:00 25,0 C 62 % 1011,4 hPa 0,0 l/m SW 0,92 h 822 W/m 13,0 km/h (3 Bft)
22.07.2017 14:00 25,9 C 58 % 1011,1 hPa 0,0 l/m SW 1,00 h 826 W/m 12,2 km/h (2 Bft)
22.07.2017 15:00 26,6 C 54 % 1010,8 hPa 0,0 l/m SW 1,00 h 695 W/m 13,8 km/h (3 Bft)
22.07.2017 16:00 26,9 C 50 % 1010,6 hPa 0,0 l/m W 1,00 h 594 W/m 17,8 km/h (3 Bft)
22.07.2017 17:00 26,6 C 48 % 1010,6 hPa 0,0 l/m W-NW 1,00 h 502 W/m 21,2 km/h (4 Bft)
22.07.2017 18:00 25,3 C 54 % 1010,9 hPa 0,0 l/m W-SW 0,08 h 170 W/m 7,8 km/h (2 Bft)
22.07.2017 19:00 22,9 C 64 % 1010,9 hPa 0,0 l/m N 0,00 h 73 W/m 0,0 km/h (0 Bft)
22.07.2017 20:00 21,2 C 73 % 1010,7 hPa 0,0 l/m N 0,00 h 22 W/m 0,0 km/h (0 Bft)
22.07.2017 21:00 19,3 C 80 % 1011,0 hPa 0,0 l/m N 0,00 h 5 W/m 0,0 km/h (0 Bft)
22.07.2017 22:00 18,2 C 83 % 1011,1 hPa 0,0 l/m N 0,00 h 0 W/m 0,0 km/h (0 Bft)
22.07.2017 23:00 18,4 C 84 % 1011,5 hPa 0,0 l/m W-SW 0,00 h 0 W/m 0,5 km/h (0 Bft)
23.07.2017 00:00 17,7 C 89 % 1012,9 hPa 2,8 l/m W-SW 0,00 h 0 W/m 11,7 km/h (2 Bft)
23.07.2017 01:00 16,6 C 95 % 1013,6 hPa 4,2 l/m SW 0,00 h 0 W/m 9,5 km/h (2 Bft)
23.07.2017 02:00 16,3 C 96 % 1013,0 hPa 0,2 l/m S-SW 0,00 h 0 W/m 5,6 km/h (1 Bft)
23.07.2017 03:00 15,5 C 97 % 1013,3 hPa 0,0 l/m SW 0,00 h 0 W/m 6,3 km/h (2 Bft)
23.07.2017 04:00 15,6 C 98 % 1013,2 hPa 0,2 l/m NW 0,00 h 0 W/m 5,0 km/h (1 Bft)
23.07.2017 05:00 15,6 C 98 % 1013,2 hPa 0,0 l/m N 0,00 h 0 W/m 0,3 km/h (0 Bft)
23.07.2017 06:00 15,5 C 98 % 1013,4 hPa 0,0 l/m SW 0,00 h 25 W/m 7,4 km/h (2 Bft)
23.07.2017 07:00 15,9 C 98 % 1013,7 hPa 0,0 l/m W-SW 0,42 h 134 W/m 13,8 km/h (3 Bft)
23.07.2017 08:00 16,9 C 97 % 1014,1 hPa 0,0 l/m W-SW 0,17 h 183 W/m 13,4 km/h (3 Bft)
23.07.2017 09:00 17,7 C 93 % 1014,3 hPa 0,0 l/m W-NW 0,00 h 207 W/m 12,1 km/h (2 Bft)
23.07.2017 10:00 18,2 C 88 % 1014,5 hPa 0,0 l/m W 0,00 h 220 W/m 10,9 km/h (2 Bft)
23.07.2017 11:00 18,3 C 84 % 1014,7 hPa 0,0 l/m W-NW 0,00 h 193 W/m 13,2 km/h (3 Bft)
23.07.2017 12:00 17,2 C 82 % 1015,0 hPa 0,0 l/m W-NW 0,08 h 251 W/m 13,8 km/h (3 Bft)
23.07.2017 13:00 18,9 C 74 % 1015,1 hPa 0,0 l/m W 0,50 h 518 W/m 20,1 km/h (4 Bft)
23.07.2017 14:00 19,9 C 68 % 1014,9 hPa 0,0 l/m W-NW 0,67 h 710 W/m 17,4 km/h (3 Bft)
23.07.2017 15:00 20,4 C 66 % 1014,5 hPa 0,0 l/m W 0,50 h 501 W/m 15,7 km/h (3 Bft)
23.07.2017 16:00 21,1 C 65 % 1013,9 hPa 0,0 l/m W-NW 0,67 h 562 W/m 16,0 km/h (3 Bft)
23.07.2017 17:00 20,7 C 67 % 1013,5 hPa 0,0 l/m W-SW 0,25 h 272 W/m 12,1 km/h (2 Bft)
23.07.2017 18:00 19,8 C 70 % 1013,5 hPa 0,0 l/m W-NW 0,00 h 150 W/m 10,3 km/h (2 Bft)
23.07.2017 19:00 19,1 C 72 % 1013,2 hPa 0,0 l/m W 0,00 h 79 W/m 5,6 km/h (1 Bft)
23.07.2017 20:00 18,1 C 77 % 1013,3 hPa 0,0 l/m N 0,00 h 27 W/m 0,9 km/h (0 Bft)
23.07.2017 21:00 17,3 C 83 % 1013,5 hPa 0,0 l/m N 0,00 h 0 W/m 0,0 km/h (0 Bft)
23.07.2017 22:00 16,5 C 88 % 1013,5 hPa 0,0 l/m N 0,00 h 0 W/m 0,0 km/h (0 Bft)
23.07.2017 23:00 16,2 C 88 % 1013,2 hPa 0,0 l/m N 0,00 h 0 W/m 0,0 km/h (0 Bft)
Min-Datum _ 17.07.17 18.07.17 21.07.17 - - - - 17.07.17
_ Min-Zeit 06:15 17:20 20:55 - - - - 00:00
Minimum _ 11,4 C 39 % 1005,7 hPa - - - - 0,0 km/h (0 Bft)
Max-Datum _ 19.07.17 21.07.17 17.07.17 18.07.17 - 17.07.17 23.07.17 21.07.17
_ Max-Zeit 16:15 05:50 00:35 22:05 - 06:25 14:45 22:00
Maximum _ 30,7 C 99 % 1020,7 hPa 15,0 l/m - 0,08 h 1169 W/m 45,1 km/h
W-NW (6 Bft)
Durchschnitt _ 20,4 C 76 % 1012,6 hPa #36,6 l/m SW #67:25 h 378 W/m 8,1 km/h (2 Bft)